createdAt,value
2023-04-11T00:02:04.890Z,93.45
2023-04-11T00:04:34.291Z,94.19
2023-04-11T00:07:04.093Z,94.24
2023-04-11T00:09:32.536Z,93.98
2023-04-11T00:12:01.785Z,94.07
2023-04-11T00:14:32.271Z,93.99
2023-04-11T00:17:01.093Z,94.09
2023-04-11T00:19:29.673Z,93.95
2023-04-11T00:21:58.530Z,93.64
2023-04-11T00:24:28.590Z,93.26
2023-04-11T00:26:58.356Z,92.74
2023-04-11T00:29:26.664Z,92.83
2023-04-11T00:31:56.717Z,92.48
2023-04-11T00:34:25.072Z,92.31
2023-04-11T00:36:53.359Z,92.11
2023-04-11T00:39:22.712Z,92.26
2023-04-11T00:41:52.324Z,92.62
2023-04-11T00:44:20.624Z,92.36
2023-04-11T00:46:49.072Z,91.85
2023-04-11T00:49:17.387Z,91.87
2023-04-11T00:51:45.761Z,91.31
2023-04-11T00:54:14.312Z,90.26
2023-04-11T00:56:42.550Z,89.41
2023-04-11T00:59:12.976Z,88.27
2023-04-11T01:01:41.697Z,87.11
2023-04-11T01:04:10.595Z,85.77
2023-04-11T01:06:40.108Z,84.50
2023-04-11T01:09:08.460Z,83.38
2023-04-11T01:11:37.264Z,83.31
2023-04-11T01:14:06.682Z,83.31
2023-04-11T01:16:36.490Z,82.74
2023-04-11T01:19:05.580Z,81.78
2023-04-11T01:21:36.156Z,80.85
2023-04-11T01:24:06.973Z,80.98
2023-04-11T01:26:35.744Z,80.80
2023-04-11T01:29:04.170Z,80.69
2023-04-11T01:31:32.678Z,80.25
2023-04-11T01:34:02.124Z,80.52
2023-04-11T01:36:31.154Z,80.59
2023-04-11T01:38:59.804Z,80.62
2023-04-11T01:41:32.699Z,80.38
2023-04-11T01:44:01.323Z,80.36
2023-04-11T01:46:29.851Z,80.17
2023-04-11T01:49:01.252Z,80.57
2023-04-11T01:51:29.740Z,80.64
2023-04-11T01:53:58.097Z,80.58
2023-04-11T01:56:26.435Z,81.29
2023-04-11T01:58:58.928Z,81.25
2023-04-11T02:01:27.446Z,81.34
2023-04-11T02:03:56.010Z,80.90
2023-04-11T02:06:24.437Z,81.48
2023-04-11T02:08:52.880Z,82.05
2023-04-11T02:11:22.731Z,82.30
2023-04-11T02:13:51.814Z,82.64
2023-04-11T02:16:25.956Z,83.24
2023-04-11T02:18:54.852Z,83.64
2023-04-11T02:21:23.443Z,83.33
2023-04-11T02:23:51.825Z,83.44
2023-04-11T02:26:22.058Z,83.32
2023-04-11T02:28:50.331Z,83.08
2023-04-11T02:31:18.678Z,83.34
2023-04-11T02:33:48.437Z,83.66
2023-04-11T02:36:16.931Z,83.61
2023-04-11T02:38:45.167Z,84.11
2023-04-11T02:41:13.561Z,83.98
2023-04-11T02:43:41.798Z,83.87
2023-04-11T02:46:13.373Z,83.87
2023-04-11T02:48:44.958Z,83.83
2023-04-11T02:51:15.857Z,83.91
2023-04-11T02:53:44.353Z,83.85
2023-04-11T02:56:18.785Z,84.19
2023-04-11T02:58:49.466Z,84.56
2023-04-11T03:01:21.674Z,84.27
2023-04-11T03:03:50.158Z,84.10
2023-04-11T03:06:20.588Z,84.08
2023-04-11T03:08:53.021Z,83.81
2023-04-11T03:11:21.538Z,83.49
2023-04-11T03:13:50.439Z,82.20
2023-04-11T03:16:19.897Z,81.33
2023-04-11T03:18:48.390Z,80.81
2023-04-11T03:21:16.705Z,80.91
2023-04-11T03:23:48.042Z,80.14
2023-04-11T03:26:17.184Z,80.18
2023-04-11T03:28:45.957Z,80.13
2023-04-11T03:31:19.004Z,79.60
2023-04-11T03:33:48.369Z,79.75
2023-04-11T03:36:17.307Z,79.68
2023-04-11T03:38:47.607Z,79.21
2023-04-11T03:41:16.043Z,79.18
2023-04-11T03:43:44.698Z,79.14
2023-04-11T03:46:13.135Z,78.86
2023-04-11T03:48:47.103Z,79.06
2023-04-11T03:51:15.868Z,79.07
2023-04-11T03:54:06.984Z,78.78
2023-04-11T03:56:39.500Z,78.25
2023-04-11T03:59:11.447Z,78.22
2023-04-11T04:01:50.746Z,77.44
2023-04-11T04:04:19.200Z,77.26
2023-04-11T04:06:56.596Z,77.54
2023-04-11T04:09:32.317Z,77.80
2023-04-11T04:12:01.618Z,78.48
2023-04-11T04:14:45.879Z,79.17
2023-04-11T04:17:17.900Z,79.21
2023-04-11T04:19:46.282Z,78.82
2023-04-11T04:22:17.770Z,79.05
2023-04-11T04:24:53.826Z,79.19
2023-04-11T04:27:26.070Z,79.19
2023-04-11T04:30:03.740Z,78.99
2023-04-11T04:32:43.980Z,79.24
2023-04-11T04:35:16.773Z,79.83
2023-04-11T04:37:46.515Z,79.97
2023-04-11T04:40:45.332Z,80.84
2023-04-11T04:43:18.612Z,80.85
2023-04-11T04:45:56.482Z,80.90
2023-04-11T04:48:29.676Z,81.48
2023-04-11T04:50:58.077Z,81.57
2023-04-11T04:53:26.844Z,81.73
2023-04-11T04:56:00.584Z,81.78
2023-04-11T04:58:31.438Z,82.28
2023-04-11T05:01:03.473Z,82.52
2023-04-11T05:03:35.629Z,83.01
2023-04-11T05:06:07.117Z,82.82
2023-04-11T05:08:36.285Z,82.46
2023-04-11T05:11:09.077Z,82.86
2023-04-11T05:13:38.032Z,82.59
2023-04-11T05:16:08.830Z,82.64
2023-04-11T05:18:37.568Z,83.11
2023-04-11T05:21:06.843Z,83.50
2023-04-11T05:23:39.334Z,83.58
2023-04-11T05:26:10.284Z,83.34
2023-04-11T05:28:39.907Z,83.05
2023-04-11T05:31:12.722Z,82.77
2023-04-11T05:33:45.397Z,82.42
2023-04-11T05:36:14.639Z,82.72
2023-04-11T05:38:44.523Z,81.95
2023-04-11T05:41:14.593Z,81.69
2023-04-11T05:43:43.156Z,81.62
2023-04-11T05:46:12.789Z,81.39
2023-04-11T05:48:41.556Z,80.79
2023-04-11T05:51:10.953Z,80.41
2023-04-11T05:53:39.275Z,80.54
2023-04-11T05:56:08.992Z,80.37
2023-04-11T05:58:38.708Z,79.37
2023-04-11T06:01:07.426Z,79.18
2023-04-11T06:03:35.998Z,79.13
2023-04-11T06:06:04.564Z,78.83
2023-04-11T06:08:34.404Z,78.42
2023-04-11T06:11:02.774Z,77.25
2023-04-11T06:13:31.100Z,77.76
2023-04-11T06:16:01.066Z,77.32
2023-04-11T06:18:29.550Z,77.28
2023-04-11T06:20:57.779Z,77.35
2023-04-11T06:23:26.208Z,76.90
2023-04-11T06:25:54.473Z,77.07
2023-04-11T06:28:22.895Z,77.00
2023-04-11T06:30:52.200Z,77.25
2023-04-11T06:33:21.912Z,77.27
2023-04-11T06:35:50.705Z,77.21
2023-04-11T06:38:19.015Z,77.01
2023-04-11T06:40:48.801Z,75.51
2023-04-11T06:43:17.157Z,75.16
2023-04-11T06:45:45.417Z,73.27
2023-04-11T06:48:13.774Z,72.94
2023-04-11T06:50:43.564Z,72.19
2023-04-11T06:53:11.942Z,71.26
2023-04-11T06:55:40.342Z,71.15
2023-04-11T06:58:08.617Z,71.09
2023-04-11T07:00:36.981Z,71.73
2023-04-11T07:03:08.215Z,68.99
2023-04-11T07:05:39.033Z,69.01
2023-04-11T07:08:09.280Z,69.20
2023-04-11T07:10:37.607Z,69.06
2023-04-11T07:13:05.930Z,68.39
2023-04-11T07:15:34.256Z,68.64
2023-04-11T07:18:03.496Z,68.00
2023-04-11T07:20:32.951Z,68.83
2023-04-11T07:23:01.601Z,68.77
2023-04-11T07:25:33.468Z,69.15
2023-04-11T07:28:02.392Z,69.34
2023-04-11T07:30:30.683Z,69.33
2023-04-11T07:32:59.021Z,69.30
2023-04-11T07:35:28.462Z,69.47
2023-04-11T07:37:58.310Z,69.68
2023-04-11T07:40:26.754Z,70.13
2023-04-11T07:42:57.874Z,68.70
2023-04-11T07:45:26.360Z,68.07
2023-04-11T07:47:54.727Z,68.35
2023-04-11T07:50:23.127Z,67.73
2023-04-11T07:52:51.885Z,66.53
2023-04-11T07:55:20.414Z,68.14
2023-04-11T07:57:48.647Z,67.49
2023-04-11T08:00:23.961Z,68.29
2023-04-11T08:02:53.059Z,67.20
2023-04-11T08:05:21.750Z,67.20
2023-04-11T08:07:50.636Z,65.98
2023-04-11T08:10:19.106Z,65.86
2023-04-11T08:12:47.465Z,66.36
2023-04-11T08:15:16.036Z,66.63
2023-04-11T08:17:45.837Z,65.82
2023-04-11T08:20:14.423Z,65.72
2023-04-11T08:22:44.791Z,65.70
2023-04-11T08:25:15.372Z,66.54
2023-04-11T08:27:43.712Z,66.68
2023-04-11T08:30:12.874Z,66.54
2023-04-11T08:32:42.447Z,64.44
2023-04-11T08:35:12.596Z,64.23
2023-04-11T08:37:41.594Z,64.11
2023-04-11T08:40:11.643Z,63.99
2023-04-11T08:42:39.967Z,62.88
2023-04-11T08:45:10.244Z,61.97
2023-04-11T08:47:38.655Z,61.33
2023-04-11T08:50:08.890Z,61.75
2023-04-11T08:52:40.816Z,60.12
2023-04-11T08:55:10.666Z,58.39
2023-04-11T08:57:39.085Z,58.73
2023-04-11T09:00:14.042Z,58.88
2023-04-11T09:03:01.332Z,59.41
2023-04-11T09:05:32.408Z,58.27
2023-04-11T09:08:07.339Z,56.86
2023-04-11T09:10:36.667Z,56.96
2023-04-11T09:13:22.368Z,55.01
2023-04-11T09:16:06.548Z,54.19
2023-04-11T09:18:37.200Z,53.85
2023-04-11T09:21:07.750Z,55.18
2023-04-11T09:23:38.561Z,56.82
2023-04-11T09:26:08.708Z,58.27
2023-04-11T09:28:44.650Z,57.12
2023-04-11T09:31:14.071Z,55.78
2023-04-11T09:33:54.585Z,56.17
2023-04-11T09:36:24.880Z,55.09
2023-04-11T09:38:55.959Z,54.36
2023-04-11T09:41:36.037Z,53.79
2023-04-11T09:44:04.587Z,53.60
2023-04-11T09:46:32.947Z,53.66
2023-04-11T09:49:02.723Z,53.38
2023-04-11T09:51:35.820Z,52.61
2023-04-11T09:54:06.583Z,51.79
2023-04-11T09:56:35.560Z,51.72
2023-04-11T09:59:05.475Z,51.87
2023-04-11T10:01:34.373Z,53.20
2023-04-11T10:04:04.585Z,52.67
2023-04-11T10:06:39.256Z,51.88
2023-04-11T10:09:12.509Z,53.36
2023-04-11T10:11:43.929Z,54.01
2023-04-11T10:14:43.432Z,53.98
2023-04-11T10:17:23.042Z,53.64
2023-04-11T10:19:57.166Z,52.92
2023-04-11T10:23:02.146Z,53.04
2023-04-11T10:25:32.372Z,53.38
2023-04-11T10:28:02.259Z,51.96
2023-04-11T10:31:04.515Z,52.58
2023-04-11T10:33:35.006Z,51.24
2023-04-11T10:36:06.369Z,50.34
2023-04-11T10:38:49.544Z,50.77
2023-04-11T10:41:31.931Z,51.38
2023-04-11T10:44:21.165Z,51.44
2023-04-11T10:46:53.736Z,50.37
2023-04-11T10:49:37.788Z,50.25
2023-04-11T10:52:20.886Z,49.41
2023-04-11T10:54:50.079Z,50.08
2023-04-11T10:57:20.224Z,49.42
2023-04-11T11:00:01.960Z,48.94
2023-04-11T11:02:41.541Z,47.67
2023-04-11T11:05:21.894Z,48.56
2023-04-11T11:07:52.668Z,47.59
2023-04-11T11:10:40.035Z,48.42
2023-04-11T11:13:10.300Z,48.02
2023-04-11T11:15:39.074Z,49.98
2023-04-11T11:18:10.985Z,52.49
2023-04-11T11:20:40.943Z,54.24
2023-04-11T11:23:12.384Z,51.59
2023-04-11T11:25:41.168Z,51.44
2023-04-11T11:28:11.429Z,51.34
2023-04-11T11:30:52.145Z,51.19
2023-04-11T11:33:23.173Z,50.59
2023-04-11T11:35:54.256Z,53.34
2023-04-11T11:38:26.602Z,53.54
2023-04-11T11:40:55.839Z,53.25
2023-04-11T11:43:27.774Z,53.41
2023-04-11T11:46:12.115Z,53.37
2023-04-11T11:48:40.742Z,53.02
2023-04-11T11:51:09.188Z,50.47
2023-04-11T11:53:37.687Z,51.09
2023-04-11T11:56:16.312Z,50.92
2023-04-11T11:58:46.789Z,50.06
2023-04-11T12:01:17.301Z,48.77
2023-04-11T12:03:48.455Z,48.87
2023-04-11T12:06:17.290Z,50.86
2023-04-11T12:08:50.262Z,48.53
2023-04-11T12:11:19.394Z,47.41
2023-04-11T12:13:54.184Z,47.17
2023-04-11T12:16:24.269Z,48.86
2023-04-11T12:18:52.803Z,50.08
2023-04-11T12:21:21.156Z,48.97
2023-04-11T12:23:49.498Z,48.64
2023-04-11T12:26:20.085Z,50.29
2023-04-11T12:28:50.404Z,50.05
2023-04-11T12:31:20.134Z,51.59
2023-04-11T12:33:48.635Z,51.46
2023-04-11T12:36:16.942Z,52.23
2023-04-11T12:38:45.606Z,51.31
2023-04-11T12:41:31.630Z,50.02
2023-04-11T12:44:04.047Z,48.87
2023-04-11T12:46:33.738Z,48.76
2023-04-11T12:49:02.124Z,47.26
2023-04-11T12:51:31.290Z,48.45
2023-04-11T12:53:59.510Z,48.35
2023-04-11T12:56:27.989Z,47.49
2023-04-11T12:58:56.400Z,46.56
2023-04-11T13:01:26.362Z,47.87
2023-04-11T13:03:54.954Z,45.97
2023-04-11T13:06:24.623Z,46.11
2023-04-11T13:08:53.012Z,47.57
2023-04-11T13:11:21.346Z,45.88
2023-04-11T13:13:49.960Z,45.78
2023-04-11T13:16:18.349Z,46.32
2023-04-11T13:18:49.124Z,45.60
2023-04-11T13:21:17.524Z,46.13
2023-04-11T13:23:46.342Z,45.98
2023-04-11T13:26:14.717Z,45.60
2023-04-11T13:28:42.992Z,45.46
2023-04-11T13:31:11.581Z,46.96
2023-04-11T13:33:40.546Z,46.78
2023-04-11T13:36:12.145Z,47.39
2023-04-11T13:38:40.497Z,47.37
2023-04-11T13:41:09.167Z,48.93
2023-04-11T13:43:37.566Z,48.68
2023-04-11T13:46:06.353Z,49.09
2023-04-11T13:48:34.823Z,46.41
2023-04-11T13:51:04.280Z,45.34
2023-04-11T13:53:34.053Z,45.65
2023-04-11T13:56:03.925Z,44.75
2023-04-11T13:58:32.508Z,44.04
2023-04-11T14:01:00.825Z,42.70
2023-04-11T14:03:33.488Z,42.99
2023-04-11T14:06:03.518Z,42.16
2023-04-11T14:08:33.256Z,42.75
2023-04-11T14:11:01.608Z,42.25
2023-04-11T14:13:29.980Z,42.65
2023-04-11T14:16:08.167Z,42.44
2023-04-11T14:18:37.540Z,41.91
2023-04-11T14:21:08.030Z,43.62
2023-04-11T14:23:38.025Z,43.58
2023-04-11T14:26:07.142Z,43.23
2023-04-11T14:28:36.003Z,42.23
2023-04-11T14:31:04.536Z,43.39
2023-04-11T14:33:32.962Z,43.12
2023-04-11T14:36:01.854Z,43.55
2023-04-11T14:38:30.232Z,43.93
2023-04-11T14:40:59.955Z,44.18
2023-04-11T14:43:28.341Z,45.33
2023-04-11T14:45:57.641Z,45.51
2023-04-11T14:48:28.763Z,45.56
2023-04-11T14:50:57.257Z,46.35
2023-04-11T14:53:26.061Z,46.41
2023-04-11T14:55:54.390Z,46.38
2023-04-11T14:58:24.109Z,46.39
2023-04-11T15:00:52.573Z,46.96
2023-04-11T15:03:20.984Z,45.91
2023-04-11T15:05:49.428Z,45.81
2023-04-11T15:08:17.882Z,44.91
2023-04-11T15:10:46.356Z,44.76
2023-04-11T15:13:14.619Z,44.59
2023-04-11T15:15:44.491Z,44.68
2023-04-11T15:18:24.592Z,44.69
2023-04-11T15:20:53.623Z,45.06
2023-04-11T15:23:22.664Z,45.88
2023-04-11T15:25:55.334Z,46.90
2023-04-11T15:28:25.166Z,46.30
2023-04-11T15:30:55.910Z,47.61
2023-04-11T15:33:24.690Z,47.69
2023-04-11T15:35:54.661Z,47.16
2023-04-11T15:38:23.383Z,46.87
2023-04-11T15:40:52.427Z,47.74
2023-04-11T15:43:20.856Z,48.12
2023-04-11T15:45:49.385Z,48.02
2023-04-11T15:48:19.214Z,48.64
2023-04-11T15:50:47.713Z,46.89
2023-04-11T15:53:16.133Z,47.03
2023-04-11T15:55:47.033Z,46.15
2023-04-11T15:58:15.396Z,46.38
2023-04-11T16:00:44.667Z,46.82
2023-04-11T16:03:13.272Z,47.35
2023-04-11T16:05:43.309Z,48.27
2023-04-11T16:08:11.898Z,49.26
2023-04-11T16:10:40.269Z,49.72
2023-04-11T16:13:08.936Z,49.92
2023-04-11T16:15:37.452Z,49.47
2023-04-11T16:18:06.140Z,49.64
2023-04-11T16:20:34.620Z,50.26
2023-04-11T16:23:04.333Z,50.61
2023-04-11T16:25:32.734Z,51.33
2023-04-11T16:28:01.100Z,51.46
2023-04-11T16:30:29.446Z,52.20
2023-04-11T16:32:57.925Z,52.74
2023-04-11T16:35:26.322Z,53.23
2023-04-11T16:37:54.717Z,53.94
2023-04-11T16:40:24.575Z,54.33
2023-04-11T16:42:52.882Z,55.00
2023-04-11T16:45:21.305Z,55.07
2023-04-11T16:47:49.790Z,55.58
2023-04-11T16:50:18.592Z,56.43
2023-04-11T16:52:47.051Z,57.16
2023-04-11T16:55:15.921Z,57.73
2023-04-11T16:57:45.647Z,58.22
2023-04-11T17:00:17.068Z,58.25
2023-04-11T17:02:45.623Z,58.27
2023-04-11T17:05:14.316Z,58.13
2023-04-11T17:07:43.741Z,58.25
2023-04-11T17:10:12.840Z,58.63
2023-04-11T17:12:41.238Z,58.89
2023-04-11T17:15:12.262Z,59.05
2023-04-11T17:17:41.275Z,59.49
2023-04-11T17:20:11.400Z,60.32
2023-04-11T17:22:43.146Z,60.48
2023-04-11T17:25:12.169Z,61.04
2023-04-11T17:27:41.557Z,61.16
2023-04-11T17:30:12.396Z,61.38
2023-04-11T17:32:40.858Z,61.46
2023-04-11T17:35:10.220Z,61.79
2023-04-11T17:37:39.681Z,61.53
2023-04-11T17:40:14.322Z,61.62
2023-04-11T17:42:43.242Z,61.83
2023-04-11T17:45:17.628Z,62.20
2023-04-11T17:47:47.334Z,62.41
2023-04-11T17:50:16.356Z,62.48
2023-04-11T17:52:46.695Z,62.42
2023-04-11T17:55:17.777Z,62.65
2023-04-11T17:57:47.308Z,62.57
2023-04-11T18:00:22.127Z,62.80
2023-04-11T18:02:52.588Z,63.00
2023-04-11T18:05:24.920Z,63.32
2023-04-11T18:07:56.605Z,63.24
2023-04-11T18:10:27.190Z,63.40
2023-04-11T18:12:57.406Z,63.44
2023-04-11T18:15:27.923Z,63.33
2023-04-11T18:17:56.328Z,63.41
2023-04-11T18:20:24.820Z,63.58
2023-04-11T18:22:55.999Z,63.67
2023-04-11T18:25:24.914Z,63.87
2023-04-11T18:27:53.237Z,63.77
2023-04-11T18:30:21.699Z,63.98
2023-04-11T18:32:53.595Z,64.08
2023-04-11T18:35:22.394Z,64.18
2023-04-11T18:37:51.070Z,64.44
2023-04-11T18:40:19.607Z,64.42
2023-04-11T18:42:50.888Z,64.59
2023-04-11T18:45:21.932Z,64.42
2023-04-11T18:47:51.940Z,64.62
2023-04-11T18:50:20.529Z,64.51
2023-04-11T18:52:52.425Z,64.52
2023-04-11T18:55:22.240Z,64.32
2023-04-11T18:57:53.443Z,64.91
2023-04-11T19:00:26.063Z,65.05
2023-04-11T19:02:56.438Z,65.58
2023-04-11T19:05:25.754Z,65.11
2023-04-11T19:07:54.238Z,64.89
2023-04-11T19:10:22.729Z,64.04
2023-04-11T19:12:51.033Z,64.40
2023-04-11T19:15:19.581Z,64.10
2023-04-11T19:17:48.005Z,64.26
2023-04-11T19:20:19.096Z,64.44
2023-04-11T19:22:47.708Z,64.04
2023-04-11T19:25:16.100Z,64.39
2023-04-11T19:27:44.588Z,63.20
2023-04-11T19:30:14.412Z,63.23
2023-04-11T19:32:44.104Z,63.08
2023-04-11T19:35:13.180Z,63.84
2023-04-11T19:37:42.990Z,62.71
2023-04-11T19:40:13.539Z,63.23
2023-04-11T19:42:42.254Z,64.05
2023-04-11T19:45:12.239Z,68.23
2023-04-11T19:47:41.396Z,69.12
2023-04-11T19:50:13.801Z,68.39
2023-04-11T19:52:44.248Z,69.20
2023-04-11T19:55:13.359Z,71.15
2023-04-11T19:57:43.751Z,72.56
2023-04-11T20:00:14.489Z,72.89
2023-04-11T20:02:48.065Z,74.11
2023-04-11T20:05:19.114Z,74.63
2023-04-11T20:07:48.887Z,75.42
2023-04-11T20:10:17.808Z,75.85
2023-04-11T20:12:46.362Z,75.83
2023-04-11T20:15:14.859Z,76.04
2023-04-11T20:17:45.782Z,76.49
2023-04-11T20:20:15.416Z,76.53
2023-04-11T20:22:45.695Z,76.39
2023-04-11T20:25:15.672Z,76.94
2023-04-11T20:27:44.702Z,77.47
2023-04-11T20:30:15.523Z,77.57
2023-04-11T20:32:44.549Z,77.86
2023-04-11T20:35:13.076Z,78.25
2023-04-11T20:37:43.366Z,78.47
2023-04-11T20:40:14.359Z,78.58
2023-04-11T20:42:45.337Z,78.29
2023-04-11T20:45:15.777Z,78.02
2023-04-11T20:47:46.230Z,77.86
2023-04-11T20:50:16.966Z,77.75
2023-04-11T20:52:46.687Z,77.94
2023-04-11T20:55:16.448Z,78.09
2023-04-11T20:57:45.655Z,78.76
2023-04-11T21:00:16.901Z,79.52
2023-04-11T21:02:50.246Z,80.38
2023-04-11T21:05:21.976Z,81.43
2023-04-11T21:07:50.377Z,82.01
2023-04-11T21:10:20.972Z,82.84
2023-04-11T21:12:51.671Z,83.81
2023-04-11T21:15:20.881Z,84.59
2023-04-11T21:17:50.322Z,85.51
2023-04-11T21:20:19.621Z,85.74
2023-04-11T21:22:48.998Z,86.39
2023-04-11T21:25:19.344Z,86.17
2023-04-11T21:27:47.948Z,87.06
2023-04-11T21:30:16.572Z,87.34
2023-04-11T21:32:44.988Z,87.81
2023-04-11T21:35:13.653Z,89.03
2023-04-11T21:37:42.035Z,89.51
2023-04-11T21:40:12.684Z,90.16
2023-04-11T21:42:42.258Z,90.10
2023-04-11T21:45:11.097Z,91.42
2023-04-11T21:47:39.530Z,91.61
2023-04-11T21:50:09.865Z,91.93
2023-04-11T21:52:38.287Z,92.52
2023-04-11T21:55:09.113Z,93.05
2023-04-11T21:57:37.631Z,93.26
2023-04-11T22:00:10.938Z,93.58
2023-04-11T22:02:42.478Z,94.20
2023-04-11T22:05:12.689Z,95.18
2023-04-11T22:07:50.168Z,94.82
2023-04-11T22:10:22.739Z,95.47
2023-04-11T22:12:53.963Z,95.85
2023-04-11T22:15:24.078Z,95.90
2023-04-11T22:17:56.397Z,96.25
2023-04-11T22:20:25.110Z,96.85
2023-04-11T22:22:53.368Z,97.07
2023-04-11T22:25:22.483Z,96.98
2023-04-11T22:27:54.288Z,97.39
2023-04-11T22:30:26.754Z,97.90
2023-04-11T22:32:55.744Z,98.24
2023-04-11T22:35:26.000Z,98.82
2023-04-11T22:37:57.136Z,99.14
2023-04-11T22:40:25.809Z,99.44
2023-04-11T22:42:54.260Z,99.51
2023-04-11T22:45:24.807Z,99.68
2023-04-11T22:47:56.946Z,100.00
2023-04-11T22:50:25.431Z,100.00
2023-04-11T22:52:54.728Z,100.00
2023-04-11T22:55:24.747Z,100.00
2023-04-11T22:57:53.296Z,100.00
2023-04-11T23:00:23.800Z,100.00
2023-04-11T23:02:53.637Z,100.00
2023-04-11T23:05:22.211Z,100.00
2023-04-11T23:07:51.118Z,100.00
2023-04-11T23:10:19.667Z,100.00
2023-04-11T23:12:49.180Z,100.00
2023-04-11T23:15:17.859Z,100.00
2023-04-11T23:17:46.143Z,100.00
2023-04-11T23:20:17.517Z,100.00
2023-04-11T23:22:46.273Z,100.00
2023-04-11T23:25:15.597Z,100.00
2023-04-11T23:27:44.539Z,100.00
2023-04-11T23:30:15.071Z,100.00
2023-04-11T23:32:43.343Z,100.00
2023-04-11T23:35:11.726Z,100.00
2023-04-11T23:37:41.666Z,100.00
2023-04-11T23:40:13.989Z,100.00
2023-04-11T23:42:42.925Z,100.00
2023-04-11T23:45:12.711Z,100.00
2023-04-11T23:47:41.205Z,100.00
2023-04-11T23:50:10.826Z,100.00
2023-04-11T23:52:40.755Z,100.00
2023-04-11T23:55:10.565Z,100.00
2023-04-11T23:57:39.014Z,100.00
